Time;durP1;ratioP1;P1;durP2;ratioP2;P2;SDS_P1;SDS_P2;PMS_P1;PMS_P2;Temp;Humidity;BMP_temperature;BMP_pressure;BME280_temperature;BME280_humidity;BME280_pressure;Samples;Min_cycle;Max_cycle;Signal;HPM_P1;HPM_P2
2022/03/12 00:00:48;;;;;;;3.40;3.10;;;2.00;39.80;;;;;;635292;226;26541;-65
2022/03/12 00:03:16;;;;;;;3.58;3.28;;;2.00;39.80;;;;;;635308;226;26568;-65
2022/03/12 00:08:16;;;;;;;3.50;3.20;;;1.90;39.70;;;;;;635484;226;26544;-65
2022/03/12 00:10:46;;;;;;;3.30;3.00;;;1.90;39.70;;;;;;635466;226;26549;-65
2022/03/12 00:13:11;;;;;;;3.97;3.55;;;1.90;39.70;;;;;;636921;224;26610;-65
2022/03/12 00:15:38;;;;;;;3.37;3.08;;;1.90;39.70;;;;;;636645;222;26517;-65
2022/03/12 00:18:06;;;;;;;3.17;2.92;;;1.90;39.80;;;;;;636307;226;26548;-65
2022/03/12 00:20:34;;;;;;;3.35;3.05;;;1.80;39.80;;;;;;636277;226;26591;-65
2022/03/12 00:23:02;;;;;;;3.35;2.90;;;1.80;40.10;;;;;;635876;226;26576;-65
2022/03/12 00:25:31;;;;;;;3.50;3.20;;;1.80;40.20;;;;;;635950;226;26786;-65
2022/03/12 00:27:57;;;;;;;4.07;3.40;;;1.80;40.30;;;;;;635824;226;26611;-65
2022/03/12 00:30:24;;;;;;;3.22;2.92;;;1.70;40.00;;;;;;635817;226;26784;-65
2022/03/12 00:32:53;;;;;;;3.85;3.45;;;1.70;39.90;;;;;;635572;226;26580;-65
2022/03/12 00:35:21;;;;;;;3.65;3.35;;;1.70;40.40;;;;;;635620;226;26563;-65
2022/03/12 00:37:48;;;;;;;3.62;3.33;;;1.60;40.40;;;;;;635638;226;26811;-65
2022/03/12 00:40:16;;;;;;;3.50;3.20;;;1.60;40.10;;;;;;635682;226;26524;-65
2022/03/12 00:42:44;;;;;;;3.03;2.83;;;1.60;40.70;;;;;;635435;226;26557;-65
2022/03/12 00:45:12;;;;;;;4.15;3.42;;;1.70;40.40;;;;;;635655;226;26528;-65
2022/03/12 00:47:39;;;;;;;3.72;3.30;;;1.60;40.30;;;;;;635558;226;27257;-65
2022/03/12 00:50:07;;;;;;;3.72;3.42;;;1.60;40.40;;;;;;635311;226;26594;-65
2022/03/12 00:52:34;;;;;;;3.90;3.50;;;1.50;40.10;;;;;;635286;226;26563;-65
2022/03/12 00:55:01;;;;;;;3.72;3.42;;;1.50;40.50;;;;;;635359;226;26833;-65
2022/03/12 00:57:28;;;;;;;3.72;3.42;;;1.50;40.40;;;;;;635298;226;26552;-65
2022/03/12 00:59:56;;;;;;;4.12;3.45;;;1.40;40.50;;;;;;635367;226;26838;-65
2022/03/12 01:02:24;;;;;;;3.65;3.20;;;1.40;40.70;;;;;;635323;226;26532;-65
2022/03/12 01:04:51;;;;;;;3.58;3.28;;;1.40;40.70;;;;;;635331;226;26524;-65
2022/03/12 01:07:18;;;;;;;3.45;3.15;;;1.40;41.00;;;;;;635372;226;26540;-65
2022/03/12 01:09:45;;;;;;;3.47;3.17;;;1.30;40.60;;;;;;635348;226;26782;-65
2022/03/12 01:12:12;;;;;;;3.62;3.33;;;1.20;40.90;;;;;;635340;221;26557;-65
2022/03/12 01:14:41;;;;;;;2.92;2.72;;;1.20;41.20;;;;;;635360;226;26532;-65
2022/03/12 01:17:08;;;;;;;4.05;3.70;;;1.20;41.30;;;;;;635326;226;26731;-65
2022/03/12 01:19:35;;;;;;;3.08;2.87;;;1.20;41.40;;;;;;635396;226;26521;-65
2022/03/12 01:22:02;;;;;;;3.97;3.60;;;1.10;41.40;;;;;;635378;226;26548;-65
2022/03/12 01:24:30;;;;;;;3.70;3.40;;;1.10;41.70;;;;;;636923;224;26576;-65
2022/03/12 01:26:58;;;;;;;3.62;3.20;;;1.00;41.70;;;;;;636712;226;26556;-64
2022/03/12 01:29:25;;;;;;;4.28;3.33;;;1.00;41.70;;;;;;636327;226;26826;-64
2022/03/12 01:31:53;;;;;;;3.92;3.42;;;1.00;41.40;;;;;;636307;226;26593;-65
2022/03/12 01:34:20;;;;;;;4.25;3.80;;;1.00;41.60;;;;;;635936;226;26876;-65
2022/03/12 01:36:47;;;;;;;3.72;3.42;;;0.90;41.90;;;;;;635930;226;26592;-65
2022/03/12 01:39:15;;;;;;;3.97;3.60;;;0.90;42.10;;;;;;635906;226;26566;-65
2022/03/12 01:41:43;;;;;;;3.47;3.17;;;0.80;42.10;;;;;;635794;226;26569;-65
2022/03/12 01:44:10;;;;;;;4.05;3.65;;;0.80;42.30;;;;;;635690;226;26561;-65
2022/03/12 01:46:39;;;;;;;3.58;3.28;;;0.80;42.20;;;;;;635550;226;26789;-66
2022/03/12 01:49:06;;;;;;;4.20;3.80;;;0.70;42.40;;;;;;635509;226;26528;-65
2022/03/12 01:51:33;;;;;;;3.47;3.17;;;0.60;42.40;;;;;;635509;222;26536;-65
2022/03/12 01:54:00;;;;;;;4.45;4.07;;;0.70;42.80;;;;;;635674;226;26594;-65
2022/03/12 01:56:27;;;;;;;4.07;3.67;;;0.70;42.50;;;;;;635651;226;26541;-65
2022/03/12 01:58:57;;;;;;;3.70;3.40;;;0.70;42.60;;;;;;635942;226;26554;-65
2022/03/12 02:01:23;;;;;;;4.40;3.22;;;0.70;42.60;;;;;;635574;226;26568;-65
2022/03/12 02:03:50;;;;;;;3.65;3.33;;;0.70;42.80;;;;;;635735;226;26581;-65
2022/03/12 02:06:19;;;;;;;4.40;3.42;;;0.70;42.70;;;;;;635728;226;26787;-65
2022/03/12 02:08:48;;;;;;;3.80;3.50;;;0.70;42.50;;;;;;635743;226;26556;-65
2022/03/12 02:11:11;;;;;;;3.95;3.65;;;0.60;42.70;;;;;;635397;226;26750;-65
2022/03/12 02:13:39;;;;;;;4.00;3.67;;;0.60;42.60;;;;;;635711;226;26537;-65
2022/03/12 02:16:08;;;;;;;4.37;3.37;;;0.70;42.80;;;;;;635741;226;26508;-65
2022/03/12 02:18:35;;;;;;;3.97;3.58;;;0.60;42.80;;;;;;635711;226;26551;-65
2022/03/12 02:21:03;;;;;;;3.97;3.60;;;0.60;42.50;;;;;;635720;226;26868;-65
2022/03/12 02:23:30;;;;;;;3.70;3.40;;;0.60;42.90;;;;;;635303;225;26611;-65
2022/03/12 02:25:58;;;;;;;4.00;3.47;;;0.60;42.90;;;;;;635403;222;26529;-65
2022/03/12 02:28:26;;;;;;;3.78;3.33;;;0.50;42.70;;;;;;634913;226;26508;-65
2022/03/12 02:30:55;;;;;;;3.67;3.37;;;0.50;42.90;;;;;;635300;226;26552;-65
2022/03/12 02:33:24;;;;;;;4.03;3.72;;;0.50;42.90;;;;;;635160;226;26564;-65
2022/03/12 02:35:48;;;;;;;4.10;3.70;;;0.50;43.00;;;;;;636687;224;26668;-65
2022/03/12 02:38:18;;;;;;;3.97;3.58;;;0.50;42.70;;;;;;636759;226;26745;-65
2022/03/12 02:40:44;;;;;;;3.85;3.55;;;0.50;42.90;;;;;;636198;221;26596;-65
2022/03/12 02:43:13;;;;;;;3.90;3.50;;;0.40;42.80;;;;;;636208;226;26846;-65
2022/03/12 02:45:38;;;;;;;4.12;3.72;;;0.40;42.80;;;;;;635857;226;26602;-65
2022/03/12 02:48:07;;;;;;;3.70;3.40;;;0.40;42.80;;;;;;635918;226;26820;-65
2022/03/12 02:50:32;;;;;;;4.10;3.80;;;0.40;42.90;;;;;;635856;226;26595;-65
2022/03/12 02:53:01;;;;;;;4.10;3.70;;;0.40;42.80;;;;;;635870;226;26626;-65
2022/03/12 02:55:29;;;;;;;3.47;3.17;;;0.40;42.80;;;;;;635695;226;26976;-65
2022/03/12 02:57:55;;;;;;;4.50;4.00;;;0.40;42.90;;;;;;635615;226;26574;-65
2022/03/12 03:00:22;;;;;;;3.53;3.22;;;0.40;42.80;;;;;;635644;226;26783;-65
2022/03/12 03:02:53;;;;;;;4.55;4.15;;;0.40;42.90;;;;;;635651;226;26561;-65
2022/03/12 03:05:31;;;;;;;4.60;3.83;;;0.40;42.80;;;;;;635685;222;27202;-65
2022/03/12 03:07:56;;;;;;;3.80;3.50;;;0.30;43.10;;;;;;635646;226;26785;-65
2022/03/12 03:10:30;;;;;;;4.00;3.70;;;0.40;43.00;;;;;;635466;226;26559;-65
2022/03/12 03:12:57;;;;;;;6.22;3.90;;;0.30;42.90;;;;;;635297;226;27128;-65
2022/03/12 03:15:24;;;;;;;4.37;3.97;;;0.30;43.00;;;;;;635295;226;26537;-65
2022/03/12 03:17:52;;;;;;;4.32;3.95;;;0.30;43.10;;;;;;635260;226;26576;-65
2022/03/12 03:20:19;;;;;;;4.47;4.07;;;0.30;43.10;;;;;;635370;226;26545;-65
2022/03/12 03:22:46;;;;;;;4.10;3.80;;;0.40;42.90;;;;;;635330;226;26580;-65
2022/03/12 03:25:13;;;;;;;4.28;3.87;;;0.40;43.10;;;;;;635384;226;26811;-65
2022/03/12 03:27:41;;;;;;;4.03;3.62;;;0.40;42.70;;;;;;635320;226;26552;-65
2022/03/12 03:30:10;;;;;;;4.37;3.97;;;0.30;43.20;;;;;;635388;226;26544;-65
2022/03/12 03:32:37;;;;;;;4.25;3.85;;;0.30;42.80;;;;;;635347;222;26797;-65
2022/03/12 03:35:05;;;;;;;4.35;3.95;;;0.30;43.20;;;;;;635358;226;26532;-65
2022/03/12 03:37:32;;;;;;;4.35;3.95;;;0.30;43.10;;;;;;635696;226;26799;-65
2022/03/12 03:39:59;;;;;;;3.80;3.50;;;0.30;42.80;;;;;;635727;226;26509;-65
2022/03/12 03:42:26;;;;;;;4.53;3.90;;;0.30;43.00;;;;;;635671;226;26799;-65
2022/03/12 03:44:59;;;;;;;5.03;4.00;;;0.20;43.00;;;;;;635516;226;26536;-67
2022/03/12 03:47:22;;;;;;;4.35;3.95;;;0.20;42.80;;;;;;636334;224;26586;-67
2022/03/12 03:49:49;;;;;;;4.18;3.60;;;0.20;42.80;;;;;;636653;226;26551;-67
2022/03/12 03:52:17;;;;;;;4.97;4.47;;;0.20;43.10;;;;;;636329;222;26588;-67
2022/03/12 03:54:44;;;;;;;4.53;4.10;;;0.20;43.10;;;;;;636343;226;26794;-67
2022/03/12 03:57:13;;;;;;;5.05;4.53;;;0.20;43.20;;;;;;635839;226;26575;-66
2022/03/12 03:59:38;;;;;;;4.40;4.00;;;0.10;43.00;;;;;;635868;226;26579;-67
2022/03/12 04:02:06;;;;;;;4.22;3.87;;;0.10;43.20;;;;;;635897;226;26571;-66
2022/03/12 04:04:36;;;;;;;5.03;4.53;;;0.00;43.20;;;;;;635859;226;26623;-66
2022/03/12 04:07:02;;;;;;;4.93;4.43;;;0.00;43.30;;;;;;635534;226;26796;-67
2022/03/12 04:09:29;;;;;;;4.50;4.10;;;0.00;43.00;;;;;;635710;226;26524;-67
2022/03/12 04:11:56;;;;;;;4.80;4.30;;;0.10;43.50;;;;;;635593;226;26749;-67
2022/03/12 04:14:25;;;;;;;5.50;3.92;;;0.00;43.40;;;;;;635703;226;26564;-67
2022/03/12 04:16:52;;;;;;;4.70;4.28;;;0.00;43.60;;;;;;635539;226;26606;-66
2022/03/12 04:19:20;;;;;;;4.30;3.90;;;0.00;43.90;;;;;;635590;226;26575;-66
2022/03/12 04:21:48;;;;;;;4.47;4.07;;;0.00;43.50;;;;;;635597;226;27207;-67
2022/03/12 04:24:15;;;;;;;4.93;4.30;;;0.00;43.50;;;;;;635283;226;26560;-67
2022/03/12 04:26:42;;;;;;;4.20;3.72;;;0.00;43.50;;;;;;635302;226;26778;-67
2022/03/12 04:29:10;;;;;;;5.05;4.40;;;0.00;43.50;;;;;;635316;226;26540;-66
2022/03/12 04:31:38;;;;;;;4.70;4.18;;;0.00;43.50;;;;;;635256;226;26505;-66
2022/03/12 04:34:05;;;;;;;4.60;4.20;;;0.00;43.90;;;;;;635271;226;26611;-66
2022/03/12 04:36:34;;;;;;;4.60;4.20;;;0.00;43.50;;;;;;635377;226;26770;-66
2022/03/12 04:39:00;;;;;;;4.20;3.83;;;0.00;43.50;;;;;;635285;221;26765;-66
2022/03/12 04:41:28;;;;;;;4.40;4.00;;;0.00;43.70;;;;;;635290;226;26548;-66
2022/03/12 04:43:54;;;;;;;4.85;4.30;;;-0.10;43.90;;;;;;635302;226;26811;-66
2022/03/12 04:46:21;;;;;;;4.90;4.03;;;-0.10;43.70;;;;;;635464;226;26519;-66
2022/03/12 04:48:48;;;;;;;4.50;4.10;;;-0.20;43.70;;;;;;635431;226;26536;-66
2022/03/12 04:51:16;;;;;;;4.53;4.00;;;-0.10;43.70;;;;;;635424;226;26600;-66
2022/03/12 04:53:44;;;;;;;4.60;4.15;;;-0.10;43.80;;;;;;635453;226;26575;-66
2022/03/12 04:56:12;;;;;;;4.78;4.37;;;-0.20;43.50;;;;;;635383;226;26556;-67
2022/03/12 04:58:40;;;;;;;4.80;4.30;;;-0.20;43.50;;;;;;636487;224;26576;-67
2022/03/12 05:01:07;;;;;;;4.37;3.97;;;-0.10;43.80;;;;;;636568;226;26539;-67
2022/03/12 05:03:34;;;;;;;4.70;4.20;;;-0.10;43.80;;;;;;636397;225;26810;-67
2022/03/12 05:06:03;;;;;;;4.85;4.35;;;-0.10;44.00;;;;;;636297;226;26579;-67
2022/03/12 05:08:28;;;;;;;4.47;4.07;;;-0.10;44.00;;;;;;635925;226;26918;-67
2022/03/12 05:10:55;;;;;;;5.82;4.50;;;-0.10;43.70;;;;;;635945;226;26614;-67
2022/03/12 05:13:23;;;;;;;5.10;4.60;;;-0.10;43.80;;;;;;635885;226;26879;-67
2022/03/12 05:15:52;;;;;;;5.10;4.15;;;-0.10;43.80;;;;;;635656;221;26825;-67
2022/03/12 05:18:18;;;;;;;4.65;4.20;;;-0.20;43.70;;;;;;635527;226;26541;-67
2022/03/12 05:20:46;;;;;;;6.37;4.80;;;-0.20;43.80;;;;;;635508;226;26533;-67
2022/03/12 05:23:13;;;;;;;5.03;4.20;;;-0.20;43.80;;;;;;635403;226;26542;-67
2022/03/12 05:25:42;;;;;;;4.40;3.97;;;-0.30;44.10;;;;;;635592;226;26566;-67
2022/03/12 05:28:10;;;;;;;5.93;4.65;;;-0.30;44.20;;;;;;635573;226;26747;-67
2022/03/12 05:30:37;;;;;;;4.37;3.97;;;-0.30;44.20;;;;;;635649;226;26536;-67
2022/03/12 05:33:05;;;;;;;5.95;4.37;;;-0.30;44.40;;;;;;635559;226;26770;-67
2022/03/12 05:35:32;;;;;;;5.53;4.15;;;-0.20;44.50;;;;;;635230;225;26536;-67
2022/03/12 05:37:58;;;;;;;4.97;4.47;;;-0.20;44.30;;;;;;635280;226;26777;-67
2022/03/12 05:40:28;;;;;;;4.72;4.22;;;-0.30;44.20;;;;;;635349;226;26547;-67
2022/03/12 05:42:55;;;;;;;4.00;3.62;;;-0.20;44.60;;;;;;635100;226;26813;-67
2022/03/12 05:45:21;;;;;;;4.78;4.25;;;-0.20;44.10;;;;;;635624;226;26788;-67
2022/03/12 05:47:49;;;;;;;5.80;4.72;;;-0.20;44.30;;;;;;635751;226;26544;-67
2022/03/12 05:50:17;;;;;;;4.95;4.25;;;-0.20;44.20;;;;;;635418;226;26535;-72
2022/03/12 05:52:47;;;;;;;7.93;4.07;;;-0.10;44.60;;;;;;635298;226;26552;-67
2022/03/12 05:55:13;;;;;;;10.32;4.43;;;-0.20;44.50;;;;;;635330;226;26504;-67
2022/03/12 05:57:40;;;;;;;7.80;4.60;;;-0.20;44.40;;;;;;635435;226;26811;-67
2022/03/12 06:00:11;;;;;;;9.75;5.12;;;-0.10;44.30;;;;;;635400;226;26552;-66
2022/03/12 06:02:35;;;;;;;4.57;4.18;;;-0.10;44.40;;;;;;635114;226;26532;-67
2022/03/12 06:05:03;;;;;;;5.93;4.18;;;-0.10;44.40;;;;;;635342;226;26778;-67
2022/03/12 06:07:32;;;;;;;4.90;4.35;;;0.00;44.40;;;;;;635302;226;27266;-67
2022/03/12 06:09:58;;;;;;;5.45;4.25;;;-0.10;44.30;;;;;;636163;224;27300;-67
2022/03/12 06:12:27;;;;;;;6.07;4.32;;;-0.10;44.30;;;;;;636663;225;26557;-67
2022/03/12 06:14:57;;;;;;;4.65;4.20;;;-0.10;44.60;;;;;;636220;226;26822;-67
2022/03/12 06:17:19;;;;;;;7.97;4.60;;;0.00;44.60;;;;;;636199;226;26573;-66
2022/03/12 06:19:46;;;;;;;4.65;4.15;;;0.10;44.40;;;;;;635986;226;26592;-66
2022/03/12 06:22:14;;;;;;;5.82;4.37;;;0.20;44.30;;;;;;635893;226;26588;-66
2022/03/12 06:24:42;;;;;;;4.68;4.20;;;0.20;44.30;;;;;;635934;226;26582;-67
2022/03/12 06:27:09;;;;;;;5.00;4.50;;;0.20;44.40;;;;;;635933;226;26634;-66
2022/03/12 06:29:36;;;;;;;5.68;4.57;;;0.30;44.30;;;;;;635651;226;26771;-66
2022/03/12 06:32:05;;;;;;;4.80;4.40;;;0.30;44.10;;;;;;635612;226;26549;-67
2022/03/12 06:34:34;;;;;;;4.87;4.37;;;0.30;44.30;;;;;;635623;226;26537;-67
2022/03/12 06:36:58;;;;;;;5.78;4.03;;;0.40;44.20;;;;;;635372;226;26798;-67
2022/03/12 06:39:25;;;;;;;4.95;3.90;;;0.40;44.00;;;;;;635647;226;26547;-67
2022/03/12 06:41:54;;;;;;;4.75;4.12;;;0.40;44.00;;;;;;635659;222;26538;-67
2022/03/12 06:44:21;;;;;;;5.00;4.50;;;0.60;44.00;;;;;;635555;226;26574;-66
2022/03/12 06:46:50;;;;;;;5.93;4.60;;;0.60;43.50;;;;;;635288;222;26592;-66
2022/03/12 06:49:16;;;;;;;4.87;4.37;;;0.60;43.50;;;;;;635200;226;26835;-66
2022/03/12 06:51:43;;;;;;;4.57;4.18;;;0.80;44.00;;;;;;635291;226;26559;-66
2022/03/12 06:54:10;;;;;;;5.03;4.37;;;0.80;43.70;;;;;;635352;226;26802;-66
2022/03/12 06:56:39;;;;;;;6.25;4.68;;;0.90;43.60;;;;;;635343;226;26542;-66
2022/03/12 06:59:06;;;;;;;6.07;4.07;;;1.00;43.60;;;;;;635581;226;26616;-66
2022/03/12 07:01:33;;;;;;;5.32;4.82;;;1.00;43.60;;;;;;635551;226;26692;-66
2022/03/12 07:04:00;;;;;;;4.37;3.75;;;1.10;43.60;;;;;;635313;226;26544;-66
2022/03/12 07:06:27;;;;;;;5.43;4.20;;;1.20;43.30;;;;;;635308;226;26796;-66
2022/03/12 07:08:55;;;;;;;4.95;4.45;;;1.20;43.30;;;;;;635350;226;26595;-66
2022/03/12 07:11:22;;;;;;;5.43;4.53;;;1.30;42.90;;;;;;635330;226;26544;-66
2022/03/12 07:13:50;;;;;;;5.37;4.70;;;1.40;42.80;;;;;;635342;226;26612;-66
2022/03/12 07:16:18;;;;;;;5.15;4.68;;;1.40;42.90;;;;;;635302;226;26589;-67
2022/03/12 07:18:46;;;;;;;5.00;4.50;;;1.50;43.10;;;;;;635309;226;26739;-66
2022/03/12 07:21:13;;;;;;;4.90;4.50;;;1.60;42.60;;;;;;635982;224;26790;-67
2022/03/12 07:23:40;;;;;;;5.40;4.82;;;1.60;42.70;;;;;;636896;226;26604;-67
2022/03/12 07:26:07;;;;;;;6.47;4.60;;;1.60;42.80;;;;;;636422;226;26796;-67
2022/03/12 07:28:35;;;;;;;4.82;4.32;;;1.80;42.90;;;;;;636209;226;26588;-66
2022/03/12 07:31:03;;;;;;;5.00;4.37;;;1.80;42.10;;;;;;636009;226;26561;-67
2022/03/12 07:33:31;;;;;;;6.65;4.57;;;1.80;42.00;;;;;;635932;226;26755;-66
2022/03/12 07:35:58;;;;;;;5.85;4.75;;;1.90;42.10;;;;;;635921;226;26590;-66
2022/03/12 07:38:25;;;;;;;4.87;4.37;;;2.10;42.20;;;;;;635880;226;26817;-66
2022/03/12 07:40:52;;;;;;;5.60;4.87;;;2.10;42.20;;;;;;635634;226;26517;-67
2022/03/12 07:43:20;;;;;;;5.55;4.87;;;2.10;41.80;;;;;;635502;225;26552;-66
2022/03/12 07:45:47;;;;;;;5.37;4.70;;;2.30;42.20;;;;;;635507;226;26536;-66
2022/03/12 07:48:15;;;;;;;5.43;4.78;;;2.30;42.10;;;;;;635597;226;26565;-66
2022/03/12 07:50:44;;;;;;;5.00;4.50;;;2.30;41.70;;;;;;635618;226;26552;-67
2022/03/12 07:53:10;;;;;;;5.22;4.45;;;2.40;41.50;;;;;;635571;226;26803;-67
2022/03/12 07:55:37;;;;;;;4.85;4.43;;;2.50;41.20;;;;;;635609;226;26596;-67
2022/03/12 07:58:04;;;;;;;4.75;4.35;;;2.60;41.30;;;;;;635404;226;26561;-66
2022/03/12 08:00:32;;;;;;;5.28;4.78;;;2.80;40.70;;;;;;635282;226;26552;-66
2022/03/12 08:03:00;;;;;;;5.53;4.72;;;2.90;40.50;;;;;;635287;226;26604;-67
2022/03/12 08:05:27;;;;;;;5.10;4.60;;;2.80;40.40;;;;;;635327;226;26774;-67
2022/03/12 08:07:55;;;;;;;5.07;4.53;;;3.00;40.50;;;;;;635320;226;26538;-67
2022/03/12 08:10:22;;;;;;;5.37;4.82;;;3.10;40.70;;;;;;635339;226;27243;-67
2022/03/12 08:12:50;;;;;;;5.22;4.60;;;3.30;40.00;;;;;;635246;225;26595;-66
2022/03/12 08:15:19;;;;;;;5.32;4.80;;;3.30;39.70;;;;;;635278;226;26575;-67
2022/03/12 08:17:46;;;;;;;5.57;4.70;;;3.30;39.70;;;;;;635311;226;26798;-67
2022/03/12 08:20:13;;;;;;;4.87;4.37;;;3.40;39.40;;;;;;635340;226;26537;-67
2022/03/12 08:22:41;;;;;;;5.18;4.55;;;3.50;39.60;;;;;;635297;226;26620;-67
2022/03/12 08:25:08;;;;;;;5.35;4.78;;;3.70;38.80;;;;;;635194;226;26528;-67
2022/03/12 08:27:35;;;;;;;5.28;4.50;;;3.70;38.80;;;;;;635292;226;26867;-67
2022/03/12 08:30:04;;;;;;;5.18;4.65;;;3.80;38.20;;;;;;635412;226;26535;-67
2022/03/12 08:32:34;;;;;;;5.47;4.70;;;3.90;37.90;;;;;;635754;224;26523;-67
2022/03/12 08:34:58;;;;;;;5.47;4.10;;;3.90;37.40;;;;;;636730;225;26834;-67
2022/03/12 08:37:26;;;;;;;5.18;4.68;;;4.10;37.10;;;;;;636582;226;26535;-67
2022/03/12 08:39:54;;;;;;;6.12;4.53;;;4.20;36.80;;;;;;636342;226;26585;-67
2022/03/12 08:42:24;;;;;;;5.28;4.45;;;4.20;36.80;;;;;;636135;226;26610;-67
2022/03/12 08:44:49;;;;;;;4.55;4.10;;;4.30;36.80;;;;;;635784;226;26594;-67
2022/03/12 08:47:16;;;;;;;5.47;4.72;;;4.40;36.20;;;;;;635948;226;26885;-67
2022/03/12 08:49:44;;;;;;;5.78;4.78;;;4.40;36.10;;;;;;635984;226;26586;-67
2022/03/12 08:52:11;;;;;;;5.28;4.68;;;4.50;35.70;;;;;;635649;226;27077;-67
2022/03/12 08:54:38;;;;;;;5.25;4.55;;;4.60;35.50;;;;;;635605;226;26557;-67
2022/03/12 08:57:06;;;;;;;5.07;4.40;;;4.60;35.20;;;;;;635635;226;26826;-67
2022/03/12 08:59:34;;;;;;;4.97;4.50;;;4.80;35.00;;;;;;635572;226;26592;-67
2022/03/12 09:02:01;;;;;;;4.40;4.00;;;4.80;35.30;;;;;;635616;226;26517;-67
2022/03/12 09:04:30;;;;;;;4.72;4.25;;;4.90;35.10;;;;;;635627;226;26603;-67
2022/03/12 09:06:57;;;;;;;5.15;4.30;;;4.90;35.10;;;;;;635627;226;26894;-67
2022/03/12 09:09:24;;;;;;;5.53;4.07;;;5.00;34.40;;;;;;635467;226;26581;-66
2022/03/12 09:11:51;;;;;;;4.40;4.00;;;5.10;34.30;;;;;;635304;226;26826;-67
2022/03/12 09:14:19;;;;;;;4.75;4.25;;;5.20;33.80;;;;;;635315;226;26587;-67
2022/03/12 09:16:47;;;;;;;5.30;4.80;;;5.30;33.80;;;;;;635156;226;26536;-67
2022/03/12 09:19:15;;;;;;;4.85;4.35;;;5.40;33.80;;;;;;635321;226;26540;-67
2022/03/12 09:21:42;;;;;;;5.68;4.57;;;5.30;33.70;;;;;;635280;226;26730;-67
2022/03/12 09:24:11;;;;;;;5.10;4.05;;;5.40;33.50;;;;;;635317;226;26543;-67
2022/03/12 09:26:37;;;;;;;5.45;4.43;;;5.50;33.40;;;;;;635291;226;26983;-67
2022/03/12 09:29:04;;;;;;;4.75;4.30;;;5.60;32.90;;;;;;635341;226;26579;-67
2022/03/12 09:31:31;;;;;;;4.28;3.70;;;5.70;33.10;;;;;;635269;226;26523;-67
2022/03/12 09:34:00;;;;;;;4.62;4.12;;;5.80;32.80;;;;;;635266;226;26554;-67
2022/03/12 09:36:26;;;;;;;4.65;4.03;;;5.80;33.20;;;;;;635244;226;26529;-67
2022/03/12 09:38:53;;;;;;;4.12;3.80;;;5.90;33.20;;;;;;635321;226;26537;-67
2022/03/12 09:41:20;;;;;;;4.97;4.50;;;6.00;31.90;;;;;;635311;226;26763;-67
2022/03/12 09:43:48;;;;;;;4.43;3.83;;;6.10;32.60;;;;;;635452;224;26552;-67
2022/03/12 09:46:15;;;;;;;4.43;4.03;;;6.20;31.70;;;;;;637094;225;26574;-67
2022/03/12 09:48:43;;;;;;;5.03;4.40;;;6.40;32.00;;;;;;636508;226;26541;-67
2022/03/12 09:51:11;;;;;;;4.62;4.22;;;6.40;32.20;;;;;;636199;226;26654;-67
2022/03/12 09:53:38;;;;;;;5.15;4.30;;;6.40;32.20;;;;;;636081;226;26819;-67
2022/03/12 09:56:05;;;;;;;4.53;4.00;;;6.50;31.10;;;;;;635974;226;26567;-67
2022/03/12 09:58:32;;;;;;;5.18;3.97;;;6.60;31.00;;;;;;635989;226;27034;-67
2022/03/12 10:01:00;;;;;;;4.62;4.18;;;6.60;30.10;;;;;;635907;226;26539;-67
2022/03/12 10:03:27;;;;;;;4.00;3.70;;;6.60;30.70;;;;;;635677;226;26566;-67
2022/03/12 10:05:55;;;;;;;4.75;4.25;;;6.60;30.40;;;;;;635665;226;26564;-67
2022/03/12 10:08:23;;;;;;;4.18;3.80;;;6.70;30.20;;;;;;635649;226;26502;-67
2022/03/12 10:10:50;;;;;;;4.32;3.90;;;6.70;30.20;;;;;;635610;226;26885;-68
2022/03/12 10:13:17;;;;;;;3.78;3.42;;;6.80;30.00;;;;;;635565;226;26599;-68
2022/03/12 10:15:44;;;;;;;4.28;3.78;;;6.80;29.20;;;;;;635672;226;27056;-68
2022/03/12 10:18:12;;;;;;;4.20;3.80;;;6.90;29.60;;;;;;635522;226;26583;-68
2022/03/12 10:20:40;;;;;;;4.25;3.80;;;6.90;29.50;;;;;;635358;226;26591;-66
2022/03/12 10:23:08;;;;;;;4.50;4.10;;;6.90;29.50;;;;;;635235;225;26563;-65
2022/03/12 10:25:35;;;;;;;4.03;3.70;;;7.00;29.60;;;;;;635266;226;26562;-65
2022/03/12 10:28:03;;;;;;;4.93;3.87;;;7.00;29.80;;;;;;635251;226;26770;-65
2022/03/12 10:30:30;;;;;;;4.53;3.95;;;7.10;29.40;;;;;;635338;226;26532;-65
2022/03/12 10:32:58;;;;;;;4.55;4.15;;;7.20;29.70;;;;;;635263;226;27237;-66
2022/03/12 10:35:25;;;;;;;4.50;3.72;;;7.30;29.50;;;;;;635332;226;26559;-66
2022/03/12 10:37:52;;;;;;;5.60;4.40;;;7.30;29.10;;;;;;635378;226;26743;-66
2022/03/12 10:40:21;;;;;;;5.85;3.95;;;7.30;29.20;;;;;;635286;226;26545;-66
2022/03/12 10:42:49;;;;;;;5.53;4.43;;;7.40;29.70;;;;;;635303;226;26975;-66
2022/03/12 10:45:16;;;;;;;5.57;3.87;;;7.40;29.50;;;;;;635304;226;26795;-66
2022/03/12 10:47:43;;;;;;;4.95;4.28;;;7.50;29.40;;;;;;635299;226;26601;-66
2022/03/12 10:50:11;;;;;;;4.72;4.20;;;7.50;29.40;;;;;;635311;226;26744;-66
2022/03/12 10:52:42;;;;;;;4.97;4.00;;;7.60;29.00;;;;;;635324;226;26859;-66
2022/03/12 10:55:23;;;;;;;5.15;4.65;;;7.60;29.00;;;;;;635272;226;26548;-66
2022/03/12 10:57:54;;;;;;;4.65;4.03;;;7.60;29.40;;;;;;636339;225;26570;-65
2022/03/12 11:00:21;;;;;;;4.65;3.80;;;7.70;29.10;;;;;;636523;226;27002;-66
2022/03/12 11:02:54;;;;;;;4.93;3.90;;;7.80;29.20;;;;;;636283;226;26591;-66
2022/03/12 11:05:26;;;;;;;5.03;4.53;;;7.90;29.70;;;;;;636126;226;26598;-66
2022/03/12 11:07:52;;;;;;;5.12;4.03;;;7.90;29.50;;;;;;636011;226;26600;-66
2022/03/12 11:10:24;;;;;;;5.37;4.15;;;8.10;29.30;;;;;;635429;226;26580;-66
2022/03/12 11:12:49;;;;;;;5.07;4.00;;;8.20;29.20;;;;;;635955;226;26636;-66
2022/03/12 11:15:16;;;;;;;4.95;3.80;;;8.20;29.10;;;;;;635435;226;27192;-66
2022/03/12 11:17:43;;;;;;;4.25;3.85;;;8.30;29.60;;;;;;635560;226;26541;-66
2022/03/12 11:20:17;;;;;;;6.28;4.15;;;8.30;28.90;;;;;;635607;226;26833;-66
2022/03/12 11:22:49;;;;;;;4.82;3.95;;;8.30;28.50;;;;;;635559;226;26534;-66
2022/03/12 11:25:19;;;;;;;4.40;4.00;;;8.30;28.30;;;;;;635645;226;26556;-66
2022/03/12 11:27:50;;;;;;;4.75;4.35;;;8.40;28.50;;;;;;635257;226;26519;-66
2022/03/12 11:30:15;;;;;;;4.28;3.87;;;8.40;28.50;;;;;;635400;226;26793;-66
2022/03/12 11:32:44;;;;;;;4.20;3.80;;;8.50;28.00;;;;;;635314;226;26628;-66
2022/03/12 11:35:13;;;;;;;4.93;3.87;;;8.50;28.00;;;;;;635290;226;26547;-66
2022/03/12 11:37:41;;;;;;;4.72;4.00;;;8.50;28.00;;;;;;635683;226;26818;-66
2022/03/12 11:40:09;;;;;;;4.78;4.10;;;8.50;27.70;;;;;;635567;226;26549;-66
2022/03/12 11:42:34;;;;;;;4.10;3.70;;;8.60;28.00;;;;;;635460;226;26612;-66
2022/03/12 11:45:01;;;;;;;4.75;3.58;;;8.60;28.00;;;;;;635715;226;26513;-66
2022/03/12 11:47:29;;;;;;;4.10;3.70;;;8.70;28.00;;;;;;635663;226;26496;-66
2022/03/12 11:49:56;;;;;;;4.37;3.97;;;8.80;28.00;;;;;;635754;226;26793;-66
2022/03/12 11:52:24;;;;;;;4.05;3.65;;;8.80;27.80;;;;;;635666;226;26794;-66
2022/03/12 11:54:54;;;;;;;4.50;3.92;;;8.90;28.00;;;;;;635727;226;26549;-66
2022/03/12 11:57:20;;;;;;;4.05;3.65;;;8.90;27.50;;;;;;635716;226;26504;-66
2022/03/12 11:59:48;;;;;;;4.50;3.80;;;9.00;27.60;;;;;;635648;226;26553;-66
2022/03/12 12:02:19;;;;;;;3.75;3.42;;;9.00;27.50;;;;;;635692;226;26565;-67
2022/03/12 12:04:45;;;;;;;3.90;3.50;;;9.10;27.30;;;;;;635317;226;26557;-66
2022/03/12 12:07:13;;;;;;;3.85;3.45;;;9.20;27.40;;;;;;636107;224;26786;-66
2022/03/12 12:09:40;;;;;;;3.92;3.47;;;9.20;27.10;;;;;;637325;226;26496;-66
2022/03/12 12:12:09;;;;;;;3.58;3.28;;;9.20;27.40;;;;;;636849;221;26796;-66
2022/03/12 12:14:36;;;;;;;3.90;3.50;;;9.30;27.20;;;;;;636519;226;26555;-66
2022/03/12 12:17:02;;;;;;;6.35;4.12;;;9.30;27.10;;;;;;636447;226;26787;-66
2022/03/12 12:19:30;;;;;;;3.72;3.33;;;9.40;26.80;;;;;;636355;226;26537;-66
2022/03/12 12:21:58;;;;;;;4.45;3.62;;;9.40;27.00;;;;;;636322;226;26562;-65
2022/03/12 12:24:33;;;;;;;4.20;3.80;;;9.40;27.00;;;;;;636331;226;26733;-66
2022/03/12 12:27:04;;;;;;;3.83;3.47;;;9.40;26.80;;;;;;635919;226;26796;-66
2022/03/12 12:29:50;;;;;;;4.55;3.70;;;9.50;26.70;;;;;;635647;226;26525;-65
2022/03/12 12:32:20;;;;;;;4.85;3.72;;;9.60;27.30;;;;;;635669;226;26855;-65
2022/03/12 12:34:57;;;;;;;4.50;3.53;;;9.70;26.90;;;;;;635670;226;26587;-66
2022/03/12 12:37:45;;;;;;;4.37;3.62;;;9.70;26.90;;;;;;635652;226;26859;-66
2022/03/12 12:40:26;;;;;;;3.75;3.28;;;9.70;27.00;;;;;;633468;225;26740;-65
2022/03/12 12:42:53;;;;;;;3.90;3.25;;;9.80;27.70;;;;;;635433;226;26647;-65
2022/03/12 12:45:20;;;;;;;3.53;3.22;;;9.80;27.40;;;;;;635197;222;26925;-65
2022/03/12 12:47:47;;;;;;;3.60;3.17;;;9.90;27.30;;;;;;635239;226;26556;-65
2022/03/12 12:50:20;;;;;;;3.55;3.25;;;10.00;26.60;;;;;;635351;226;26581;-65
2022/03/12 12:53:14;;;;;;;4.05;3.65;;;10.00;26.80;;;;;;635188;226;26556;-65
2022/03/12 12:55:42;;;;;;;4.37;3.22;;;10.00;26.60;;;;;;635305;226;26758;-65
2022/03/12 12:58:10;;;;;;;5.30;3.65;;;10.00;26.60;;;;;;635335;226;26777;-65
2022/03/12 13:00:38;;;;;;;3.87;3.25;;;10.10;27.10;;;;;;635376;226;26536;-65